sensor_id;sensor_type;location;lat;lon;timestamp;P1;durP1;ratioP1;P2;durP2;ratioP2
69744;SDS011;57015;50.120;-5.168;2023-08-17T00:00:21;4.27;;;1.30;;
69744;SDS011;57015;50.120;-5.168;2023-08-17T00:02:46;1.83;;;0.90;;
69744;SDS011;57015;50.120;-5.168;2023-08-17T00:05:12;1.92;;;0.60;;
69744;SDS011;57015;50.120;-5.168;2023-08-17T00:07:37;2.13;;;1.00;;
69744;SDS011;57015;50.120;-5.168;2023-08-17T00:10:03;3.23;;;0.90;;
69744;SDS011;57015;50.120;-5.168;2023-08-17T00:12:28;3.93;;;0.90;;
69744;SDS011;57015;50.120;-5.168;2023-08-17T00:14:54;3.47;;;0.80;;
69744;SDS011;57015;50.120;-5.168;2023-08-17T00:17:20;2.23;;;0.70;;
69744;SDS011;57015;50.120;-5.168;2023-08-17T00:19:45;7.40;;;0.93;;
69744;SDS011;57015;50.120;-5.168;2023-08-17T00:22:10;2.10;;;0.80;;
69744;SDS011;57015;50.120;-5.168;2023-08-17T00:24:36;2.67;;;0.83;;
69744;SDS011;57015;50.120;-5.168;2023-08-17T00:27:01;1.63;;;0.67;;
69744;SDS011;57015;50.120;-5.168;2023-08-17T00:29:28;2.65;;;0.90;;
69744;SDS011;57015;50.120;-5.168;2023-08-17T00:31:54;6.10;;;0.80;;
69744;SDS011;57015;50.120;-5.168;2023-08-17T00:34:19;3.67;;;0.60;;
69744;SDS011;57015;50.120;-5.168;2023-08-17T00:36:44;2.30;;;0.77;;
69744;SDS011;57015;50.120;-5.168;2023-08-17T00:39:10;1.73;;;0.93;;
69744;SDS011;57015;50.120;-5.168;2023-08-17T00:41:35;2.47;;;0.73;;
69744;SDS011;57015;50.120;-5.168;2023-08-17T00:44:01;3.47;;;0.70;;
69744;SDS011;57015;50.120;-5.168;2023-08-17T00:46:26;3.13;;;0.77;;
69744;SDS011;57015;50.120;-5.168;2023-08-17T00:48:53;2.08;;;0.63;;
69744;SDS011;57015;50.120;-5.168;2023-08-17T00:51:20;1.52;;;0.57;;
69744;SDS011;57015;50.120;-5.168;2023-08-17T00:53:48;4.20;;;0.88;;
69744;SDS011;57015;50.120;-5.168;2023-08-17T00:56:14;1.33;;;0.57;;
69744;SDS011;57015;50.120;-5.168;2023-08-17T00:58:40;3.67;;;0.88;;
69744;SDS011;57015;50.120;-5.168;2023-08-17T01:01:05;2.23;;;0.50;;
69744;SDS011;57015;50.120;-5.168;2023-08-17T01:03:30;6.00;;;1.73;;
69744;SDS011;57015;50.120;-5.168;2023-08-17T01:05:57;2.38;;;0.80;;
69744;SDS011;57015;50.120;-5.168;2023-08-17T01:08:22;1.57;;;0.60;;
69744;SDS011;57015;50.120;-5.168;2023-08-17T01:10:52;2.45;;;0.90;;
69744;SDS011;57015;50.120;-5.168;2023-08-17T01:13:24;1.83;;;1.17;;
69744;SDS011;57015;50.120;-5.168;2023-08-17T01:15:55;2.55;;;0.90;;
69744;SDS011;57015;50.120;-5.168;2023-08-17T01:18:29;4.20;;;1.13;;
69744;SDS011;57015;50.120;-5.168;2023-08-17T01:20:57;2.78;;;0.63;;
69744;SDS011;57015;50.120;-5.168;2023-08-17T01:23:23;2.73;;;0.67;;
69744;SDS011;57015;50.120;-5.168;2023-08-17T01:25:48;2.40;;;0.60;;
69744;SDS011;57015;50.120;-5.168;2023-08-17T01:28:14;3.63;;;0.83;;
69744;SDS011;57015;50.120;-5.168;2023-08-17T01:30:43;3.77;;;0.90;;
69744;SDS011;57015;50.120;-5.168;2023-08-17T01:33:24;4.20;;;0.90;;
69744;SDS011;57015;50.120;-5.168;2023-08-17T01:36:13;1.88;;;0.60;;
69744;SDS011;57015;50.120;-5.168;2023-08-17T01:38:42;3.85;;;0.82;;
69744;SDS011;57015;50.120;-5.168;2023-08-17T01:41:09;3.63;;;1.00;;
69744;SDS011;57015;50.120;-5.168;2023-08-17T01:43:41;2.38;;;0.75;;
69744;SDS011;57015;50.120;-5.168;2023-08-17T01:46:10;4.50;;;0.90;;
69744;SDS011;57015;50.120;-5.168;2023-08-17T01:48:38;4.78;;;0.65;;
69744;SDS011;57015;50.120;-5.168;2023-08-17T01:51:03;2.93;;;0.90;;
69744;SDS011;57015;50.120;-5.168;2023-08-17T01:53:29;3.30;;;0.80;;
69744;SDS011;57015;50.120;-5.168;2023-08-17T01:55:54;2.27;;;0.60;;
69744;SDS011;57015;50.120;-5.168;2023-08-17T01:58:20;2.47;;;0.80;;
69744;SDS011;57015;50.120;-5.168;2023-08-17T02:00:45;2.63;;;0.90;;
69744;SDS011;57015;50.120;-5.168;2023-08-17T02:03:10;2.55;;;0.70;;
69744;SDS011;57015;50.120;-5.168;2023-08-17T02:05:36;4.47;;;0.70;;
69744;SDS011;57015;50.120;-5.168;2023-08-17T02:08:01;5.20;;;1.00;;
69744;SDS011;57015;50.120;-5.168;2023-08-17T02:10:27;2.88;;;0.80;;
69744;SDS011;57015;50.120;-5.168;2023-08-17T02:12:53;5.30;;;0.73;;
69744;SDS011;57015;50.120;-5.168;2023-08-17T02:15:18;4.63;;;1.00;;
69744;SDS011;57015;50.120;-5.168;2023-08-17T02:17:43;2.97;;;0.90;;
69744;SDS011;57015;50.120;-5.168;2023-08-17T02:20:09;3.60;;;0.97;;
69744;SDS011;57015;50.120;-5.168;2023-08-17T02:22:35;2.72;;;0.80;;
69744;SDS011;57015;50.120;-5.168;2023-08-17T02:25:00;1.47;;;0.53;;
69744;SDS011;57015;50.120;-5.168;2023-08-17T02:27:26;2.67;;;0.88;;
69744;SDS011;57015;50.120;-5.168;2023-08-17T02:29:51;3.22;;;0.90;;
69744;SDS011;57015;50.120;-5.168;2023-08-17T02:32:17;3.27;;;0.90;;
69744;SDS011;57015;50.120;-5.168;2023-08-17T02:34:42;3.63;;;0.90;;
69744;SDS011;57015;50.120;-5.168;2023-08-17T02:37:08;1.80;;;0.68;;
69744;SDS011;57015;50.120;-5.168;2023-08-17T02:39:33;1.77;;;0.60;;
69744;SDS011;57015;50.120;-5.168;2023-08-17T02:41:59;1.93;;;0.60;;
69744;SDS011;57015;50.120;-5.168;2023-08-17T02:44:24;3.60;;;0.70;;
69744;SDS011;57015;50.120;-5.168;2023-08-17T02:46:49;1.73;;;0.63;;
69744;SDS011;57015;50.120;-5.168;2023-08-17T02:49:15;4.10;;;1.20;;
69744;SDS011;57015;50.120;-5.168;2023-08-17T02:51:40;2.97;;;1.10;;
69744;SDS011;57015;50.120;-5.168;2023-08-17T02:54:05;1.83;;;0.70;;
69744;SDS011;57015;50.120;-5.168;2023-08-17T02:56:31;4.50;;;1.00;;
69744;SDS011;57015;50.120;-5.168;2023-08-17T02:58:56;2.20;;;0.90;;
69744;SDS011;57015;50.120;-5.168;2023-08-17T03:01:22;3.27;;;0.93;;
69744;SDS011;57015;50.120;-5.168;2023-08-17T03:03:47;3.60;;;0.80;;
69744;SDS011;57015;50.120;-5.168;2023-08-17T03:06:12;5.20;;;0.70;;
69744;SDS011;57015;50.120;-5.168;2023-08-17T03:08:38;2.27;;;0.93;;
69744;SDS011;57015;50.120;-5.168;2023-08-17T03:11:03;2.63;;;0.90;;
69744;SDS011;57015;50.120;-5.168;2023-08-17T03:13:28;2.47;;;0.70;;
69744;SDS011;57015;50.120;-5.168;2023-08-17T03:15:54;3.10;;;0.70;;
69744;SDS011;57015;50.120;-5.168;2023-08-17T03:18:19;3.17;;;1.00;;
69744;SDS011;57015;50.120;-5.168;2023-08-17T03:20:45;3.93;;;0.63;;
69744;SDS011;57015;50.120;-5.168;2023-08-17T03:23:11;3.38;;;0.93;;
69744;SDS011;57015;50.120;-5.168;2023-08-17T03:25:36;5.40;;;1.10;;
69744;SDS011;57015;50.120;-5.168;2023-08-17T03:28:02;3.13;;;0.73;;
69744;SDS011;57015;50.120;-5.168;2023-08-17T03:30:28;3.80;;;0.70;;
69744;SDS011;57015;50.120;-5.168;2023-08-17T03:32:53;1.92;;;0.80;;
69744;SDS011;57015;50.120;-5.168;2023-08-17T03:35:19;2.40;;;0.50;;
69744;SDS011;57015;50.120;-5.168;2023-08-17T03:37:44;2.53;;;0.60;;
69744;SDS011;57015;50.120;-5.168;2023-08-17T03:40:10;2.25;;;1.10;;
69744;SDS011;57015;50.120;-5.168;2023-08-17T03:42:36;2.00;;;0.70;;
69744;SDS011;57015;50.120;-5.168;2023-08-17T03:45:01;4.53;;;0.73;;
69744;SDS011;57015;50.120;-5.168;2023-08-17T03:47:28;3.33;;;0.80;;
69744;SDS011;57015;50.120;-5.168;2023-08-17T03:49:53;3.17;;;0.70;;
69744;SDS011;57015;50.120;-5.168;2023-08-17T03:52:19;1.63;;;0.70;;
69744;SDS011;57015;50.120;-5.168;2023-08-17T03:54:44;2.13;;;0.70;;
69744;SDS011;57015;50.120;-5.168;2023-08-17T03:57:10;2.10;;;1.20;;
69744;SDS011;57015;50.120;-5.168;2023-08-17T03:59:37;2.28;;;0.80;;
69744;SDS011;57015;50.120;-5.168;2023-08-17T04:02:02;2.43;;;0.90;;
69744;SDS011;57015;50.120;-5.168;2023-08-17T04:04:28;4.87;;;1.00;;
69744;SDS011;57015;50.120;-5.168;2023-08-17T04:06:53;1.90;;;0.60;;
69744;SDS011;57015;50.120;-5.168;2023-08-17T04:09:18;4.45;;;1.00;;
69744;SDS011;57015;50.120;-5.168;2023-08-17T04:11:44;2.90;;;1.00;;
69744;SDS011;57015;50.120;-5.168;2023-08-17T04:14:09;3.03;;;1.00;;
69744;SDS011;57015;50.120;-5.168;2023-08-17T04:16:35;1.52;;;0.82;;
69744;SDS011;57015;50.120;-5.168;2023-08-17T04:19:01;2.57;;;0.83;;
69744;SDS011;57015;50.120;-5.168;2023-08-17T04:21:26;2.43;;;0.70;;
69744;SDS011;57015;50.120;-5.168;2023-08-17T04:23:51;2.73;;;0.70;;
69744;SDS011;57015;50.120;-5.168;2023-08-17T04:26:17;1.70;;;1.00;;
69744;SDS011;57015;50.120;-5.168;2023-08-17T04:28:42;2.20;;;0.77;;
69744;SDS011;57015;50.120;-5.168;2023-08-17T04:31:07;1.85;;;0.68;;
69744;SDS011;57015;50.120;-5.168;2023-08-17T04:33:33;3.03;;;0.90;;
69744;SDS011;57015;50.120;-5.168;2023-08-17T04:35:58;2.97;;;0.90;;
69744;SDS011;57015;50.120;-5.168;2023-08-17T04:38:25;2.50;;;0.77;;
69744;SDS011;57015;50.120;-5.168;2023-08-17T04:40:50;5.28;;;0.80;;
69744;SDS011;57015;50.120;-5.168;2023-08-17T04:43:15;5.53;;;1.03;;
69744;SDS011;57015;50.120;-5.168;2023-08-17T04:45:41;4.10;;;0.90;;
69744;SDS011;57015;50.120;-5.168;2023-08-17T04:48:06;1.97;;;0.67;;
69744;SDS011;57015;50.120;-5.168;2023-08-17T04:50:32;4.28;;;0.70;;
69744;SDS011;57015;50.120;-5.168;2023-08-17T04:52:57;2.93;;;0.57;;
69744;SDS011;57015;50.120;-5.168;2023-08-17T04:55:23;3.77;;;0.90;;
69744;SDS011;57015;50.120;-5.168;2023-08-17T04:57:48;3.03;;;0.80;;
69744;SDS011;57015;50.120;-5.168;2023-08-17T05:00:14;2.40;;;0.73;;
69744;SDS011;57015;50.120;-5.168;2023-08-17T05:02:40;2.13;;;0.90;;
69744;SDS011;57015;50.120;-5.168;2023-08-17T05:05:06;2.30;;;0.90;;
69744;SDS011;57015;50.120;-5.168;2023-08-17T05:07:32;3.07;;;1.10;;
69744;SDS011;57015;50.120;-5.168;2023-08-17T05:09:58;3.17;;;1.00;;
69744;SDS011;57015;50.120;-5.168;2023-08-17T05:12:23;3.00;;;1.30;;
69744;SDS011;57015;50.120;-5.168;2023-08-17T05:14:49;2.50;;;0.70;;
69744;SDS011;57015;50.120;-5.168;2023-08-17T05:17:14;7.17;;;1.17;;
69744;SDS011;57015;50.120;-5.168;2023-08-17T05:19:40;3.47;;;1.10;;
69744;SDS011;57015;50.120;-5.168;2023-08-17T05:22:09;4.65;;;1.10;;
69744;SDS011;57015;50.120;-5.168;2023-08-17T05:24:36;4.57;;;0.90;;
69744;SDS011;57015;50.120;-5.168;2023-08-17T05:27:01;2.75;;;1.13;;
69744;SDS011;57015;50.120;-5.168;2023-08-17T05:29:27;3.60;;;1.10;;
69744;SDS011;57015;50.120;-5.168;2023-08-17T05:31:52;2.70;;;1.07;;
69744;SDS011;57015;50.120;-5.168;2023-08-17T05:34:18;3.87;;;1.37;;
69744;SDS011;57015;50.120;-5.168;2023-08-17T05:36:43;4.87;;;1.10;;
69744;SDS011;57015;50.120;-5.168;2023-08-17T05:39:08;3.85;;;1.38;;
69744;SDS011;57015;50.120;-5.168;2023-08-17T05:41:34;3.93;;;1.10;;
69744;SDS011;57015;50.120;-5.168;2023-08-17T05:43:59;3.07;;;1.20;;
69744;SDS011;57015;50.120;-5.168;2023-08-17T05:46:25;1.93;;;0.90;;
69744;SDS011;57015;50.120;-5.168;2023-08-17T05:48:50;2.90;;;1.50;;
69744;SDS011;57015;50.120;-5.168;2023-08-17T05:51:16;6.80;;;1.40;;
69744;SDS011;57015;50.120;-5.168;2023-08-17T05:53:41;2.43;;;0.93;;
69744;SDS011;57015;50.120;-5.168;2023-08-17T05:56:06;5.20;;;1.20;;
69744;SDS011;57015;50.120;-5.168;2023-08-17T05:58:32;4.57;;;1.00;;
69744;SDS011;57015;50.120;-5.168;2023-08-17T06:01:07;4.47;;;0.70;;
69744;SDS011;57015;50.120;-5.168;2023-08-17T06:03:34;3.55;;;1.35;;
69744;SDS011;57015;50.120;-5.168;2023-08-17T06:06:00;3.55;;;1.50;;
69744;SDS011;57015;50.120;-5.168;2023-08-17T06:08:26;4.93;;;1.40;;
69744;SDS011;57015;50.120;-5.168;2023-08-17T06:10:52;3.70;;;1.42;;
69744;SDS011;57015;50.120;-5.168;2023-08-17T06:13:17;6.97;;;1.50;;
69744;SDS011;57015;50.120;-5.168;2023-08-17T06:15:43;3.57;;;1.30;;
69744;SDS011;57015;50.120;-5.168;2023-08-17T06:18:08;3.53;;;1.63;;
69744;SDS011;57015;50.120;-5.168;2023-08-17T06:20:33;2.93;;;1.80;;
69744;SDS011;57015;50.120;-5.168;2023-08-17T06:22:59;3.28;;;1.45;;
69744;SDS011;57015;50.120;-5.168;2023-08-17T06:25:24;3.88;;;1.70;;
69744;SDS011;57015;50.120;-5.168;2023-08-17T06:27:51;7.67;;;1.40;;
69744;SDS011;57015;50.120;-5.168;2023-08-17T06:30:16;3.53;;;1.40;;
69744;SDS011;57015;50.120;-5.168;2023-08-17T06:32:45;4.85;;;1.63;;
69744;SDS011;57015;50.120;-5.168;2023-08-17T06:35:10;3.67;;;1.30;;
69744;SDS011;57015;50.120;-5.168;2023-08-17T06:37:36;5.43;;;1.80;;
69744;SDS011;57015;50.120;-5.168;2023-08-17T06:40:04;6.87;;;1.80;;
69744;SDS011;57015;50.120;-5.168;2023-08-17T06:42:31;6.38;;;3.00;;
69744;SDS011;57015;50.120;-5.168;2023-08-17T06:44:56;9.90;;;3.40;;
69744;SDS011;57015;50.120;-5.168;2023-08-17T06:47:22;6.63;;;2.60;;
69744;SDS011;57015;50.120;-5.168;2023-08-17T06:49:47;8.13;;;3.77;;
69744;SDS011;57015;50.120;-5.168;2023-08-17T06:52:12;8.73;;;4.17;;
69744;SDS011;57015;50.120;-5.168;2023-08-17T06:54:38;12.03;;;5.73;;
69744;SDS011;57015;50.120;-5.168;2023-08-17T06:57:03;14.50;;;7.22;;
69744;SDS011;57015;50.120;-5.168;2023-08-17T06:59:29;15.63;;;8.47;;
69744;SDS011;57015;50.120;-5.168;2023-08-17T07:01:56;16.83;;;9.77;;
69744;SDS011;57015;50.120;-5.168;2023-08-17T07:04:21;18.40;;;10.40;;
69744;SDS011;57015;50.120;-5.168;2023-08-17T07:06:47;19.30;;;10.93;;
69744;SDS011;57015;50.120;-5.168;2023-08-17T07:09:12;24.10;;;12.80;;
69744;SDS011;57015;50.120;-5.168;2023-08-17T07:11:38;25.77;;;13.23;;
69744;SDS011;57015;50.120;-5.168;2023-08-17T07:14:04;21.27;;;11.70;;
69744;SDS011;57015;50.120;-5.168;2023-08-17T07:16:31;24.33;;;11.93;;
69744;SDS011;57015;50.120;-5.168;2023-08-17T07:18:57;27.50;;;12.98;;
69744;SDS011;57015;50.120;-5.168;2023-08-17T07:21:22;19.83;;;12.73;;
69744;SDS011;57015;50.120;-5.168;2023-08-17T07:23:47;22.70;;;12.40;;
69744;SDS011;57015;50.120;-5.168;2023-08-17T07:26:13;22.85;;;13.63;;
69744;SDS011;57015;50.120;-5.168;2023-08-17T07:28:39;21.40;;;12.37;;
69744;SDS011;57015;50.120;-5.168;2023-08-17T07:31:04;24.97;;;14.33;;
69744;SDS011;57015;50.120;-5.168;2023-08-17T07:33:31;22.17;;;11.65;;
69744;SDS011;57015;50.120;-5.168;2023-08-17T07:35:56;22.93;;;12.87;;
69744;SDS011;57015;50.120;-5.168;2023-08-17T07:38:23;26.25;;;15.43;;
69744;SDS011;57015;50.120;-5.168;2023-08-17T07:40:48;18.37;;;10.77;;
69744;SDS011;57015;50.120;-5.168;2023-08-17T07:43:14;22.77;;;14.68;;
69744;SDS011;57015;50.120;-5.168;2023-08-17T07:45:39;20.23;;;12.85;;
69744;SDS011;57015;50.120;-5.168;2023-08-17T07:48:04;21.43;;;12.87;;
69744;SDS011;57015;50.120;-5.168;2023-08-17T07:50:30;18.40;;;11.80;;
69744;SDS011;57015;50.120;-5.168;2023-08-17T07:52:55;18.73;;;10.83;;
69744;SDS011;57015;50.120;-5.168;2023-08-17T07:55:21;17.43;;;11.37;;
69744;SDS011;57015;50.120;-5.168;2023-08-17T07:57:47;17.60;;;7.90;;
69744;SDS011;57015;50.120;-5.168;2023-08-17T08:00:13;14.65;;;8.55;;
69744;SDS011;57015;50.120;-5.168;2023-08-17T08:02:42;15.45;;;8.02;;
69744;SDS011;57015;50.120;-5.168;2023-08-17T08:05:07;11.60;;;6.93;;
69744;SDS011;57015;50.120;-5.168;2023-08-17T08:07:32;11.93;;;6.23;;
69744;SDS011;57015;50.120;-5.168;2023-08-17T08:09:58;14.47;;;6.40;;
69744;SDS011;57015;50.120;-5.168;2023-08-17T08:12:25;10.60;;;6.22;;
69744;SDS011;57015;50.120;-5.168;2023-08-17T08:14:50;8.63;;;5.67;;
69744;SDS011;57015;50.120;-5.168;2023-08-17T08:17:16;9.83;;;5.43;;
69744;SDS011;57015;50.120;-5.168;2023-08-17T08:19:41;12.63;;;5.85;;
69744;SDS011;57015;50.120;-5.168;2023-08-17T08:22:07;12.17;;;4.57;;
69744;SDS011;57015;50.120;-5.168;2023-08-17T08:24:32;8.17;;;4.93;;
69744;SDS011;57015;50.120;-5.168;2023-08-17T08:26:59;9.02;;;5.35;;
69744;SDS011;57015;50.120;-5.168;2023-08-17T08:29:26;9.87;;;5.17;;
69744;SDS011;57015;50.120;-5.168;2023-08-17T08:31:51;9.80;;;3.70;;
69744;SDS011;57015;50.120;-5.168;2023-08-17T08:34:18;7.65;;;4.05;;
69744;SDS011;57015;50.120;-5.168;2023-08-17T08:36:43;8.67;;;4.23;;
69744;SDS011;57015;50.120;-5.168;2023-08-17T08:39:09;11.33;;;4.77;;
69744;SDS011;57015;50.120;-5.168;2023-08-17T08:41:35;7.72;;;4.55;;
69744;SDS011;57015;50.120;-5.168;2023-08-17T08:44:02;11.80;;;5.30;;
69744;SDS011;57015;50.120;-5.168;2023-08-17T08:46:27;16.52;;;6.75;;
69744;SDS011;57015;50.120;-5.168;2023-08-17T08:48:57;13.23;;;7.00;;
69744;SDS011;57015;50.120;-5.168;2023-08-17T08:51:25;12.90;;;6.28;;
69744;SDS011;57015;50.120;-5.168;2023-08-17T08:54:02;9.53;;;5.93;;
69744;SDS011;57015;50.120;-5.168;2023-08-17T08:56:33;12.95;;;5.70;;
69744;SDS011;57015;50.120;-5.168;2023-08-17T08:59:01;12.38;;;6.80;;
69744;SDS011;57015;50.120;-5.168;2023-08-17T09:01:28;20.33;;;8.13;;
69744;SDS011;57015;50.120;-5.168;2023-08-17T09:03:54;12.77;;;6.65;;
69744;SDS011;57015;50.120;-5.168;2023-08-17T09:06:21;12.50;;;6.50;;
69744;SDS011;57015;50.120;-5.168;2023-08-17T09:08:48;14.73;;;6.97;;
69744;SDS011;57015;50.120;-5.168;2023-08-17T09:11:14;13.18;;;6.82;;
69744;SDS011;57015;50.120;-5.168;2023-08-17T09:13:39;13.93;;;6.20;;
69744;SDS011;57015;50.120;-5.168;2023-08-17T09:16:05;13.87;;;6.70;;
69744;SDS011;57015;50.120;-5.168;2023-08-17T09:18:30;14.82;;;7.65;;
69744;SDS011;57015;50.120;-5.168;2023-08-17T09:20:56;14.97;;;7.50;;
69744;SDS011;57015;50.120;-5.168;2023-08-17T09:23:21;15.03;;;7.00;;
69744;SDS011;57015;50.120;-5.168;2023-08-17T09:25:47;13.23;;;7.43;;
69744;SDS011;57015;50.120;-5.168;2023-08-17T09:28:18;12.23;;;6.93;;
69744;SDS011;57015;50.120;-5.168;2023-08-17T09:30:53;12.80;;;6.63;;
69744;SDS011;57015;50.120;-5.168;2023-08-17T09:33:21;15.07;;;7.38;;
69744;SDS011;57015;50.120;-5.168;2023-08-17T09:35:48;16.90;;;7.13;;
69744;SDS011;57015;50.120;-5.168;2023-08-17T09:38:14;17.58;;;8.60;;
69744;SDS011;57015;50.120;-5.168;2023-08-17T09:40:40;14.77;;;7.57;;
69744;SDS011;57015;50.120;-5.168;2023-08-17T09:43:05;15.73;;;6.50;;
69744;SDS011;57015;50.120;-5.168;2023-08-17T09:45:31;19.52;;;8.63;;
69744;SDS011;57015;50.120;-5.168;2023-08-17T09:48:00;15.40;;;8.17;;
69744;SDS011;57015;50.120;-5.168;2023-08-17T09:50:25;17.65;;;7.47;;
69744;SDS011;57015;50.120;-5.168;2023-08-17T09:52:54;15.93;;;7.93;;
69744;SDS011;57015;50.120;-5.168;2023-08-17T09:55:21;12.88;;;7.50;;
69744;SDS011;57015;50.120;-5.168;2023-08-17T09:57:48;17.52;;;6.80;;
69744;SDS011;57015;50.120;-5.168;2023-08-17T10:00:15;13.87;;;7.37;;
69744;SDS011;57015;50.120;-5.168;2023-08-17T10:02:40;18.88;;;8.18;;
69744;SDS011;57015;50.120;-5.168;2023-08-17T10:05:09;13.35;;;7.88;;
69744;SDS011;57015;50.120;-5.168;2023-08-17T10:07:36;14.67;;;6.53;;
69744;SDS011;57015;50.120;-5.168;2023-08-17T10:10:05;20.70;;;9.98;;
69744;SDS011;57015;50.120;-5.168;2023-08-17T10:12:45;20.02;;;8.27;;
69744;SDS011;57015;50.120;-5.168;2023-08-17T10:15:15;21.40;;;10.15;;
69744;SDS011;57015;50.120;-5.168;2023-08-17T10:17:46;29.00;;;11.07;;
69744;SDS011;57015;50.120;-5.168;2023-08-17T10:20:34;20.17;;;9.40;;
69744;SDS011;57015;50.120;-5.168;2023-08-17T10:25:39;24.52;;;10.70;;
69744;SDS011;57015;50.120;-5.168;2023-08-17T10:28:06;27.23;;;11.10;;
69744;SDS011;57015;50.120;-5.168;2023-08-17T10:30:34;29.85;;;11.88;;
69744;SDS011;57015;50.120;-5.168;2023-08-17T10:33:01;28.50;;;11.80;;
69744;SDS011;57015;50.120;-5.168;2023-08-17T10:35:28;23.23;;;12.40;;
69744;SDS011;57015;50.120;-5.168;2023-08-17T10:37:54;35.28;;;14.48;;
69744;SDS011;57015;50.120;-5.168;2023-08-17T10:40:26;31.60;;;14.00;;
69744;SDS011;57015;50.120;-5.168;2023-08-17T10:42:53;30.42;;;13.55;;
69744;SDS011;57015;50.120;-5.168;2023-08-17T10:50:30;32.50;;;12.90;;
69744;SDS011;57015;50.120;-5.168;2023-08-17T10:52:57;28.98;;;13.18;;
69744;SDS011;57015;50.120;-5.168;2023-08-17T10:55:39;31.00;;;13.43;;
69744;SDS011;57015;50.120;-5.168;2023-08-17T10:58:07;28.58;;;12.63;;
69744;SDS011;57015;50.120;-5.168;2023-08-17T11:00:41;38.70;;;13.45;;
69744;SDS011;57015;50.120;-5.168;2023-08-17T11:03:10;36.60;;;13.65;;
69744;SDS011;57015;50.120;-5.168;2023-08-17T11:05:46;29.98;;;13.30;;
69744;SDS011;57015;50.120;-5.168;2023-08-17T11:08:22;25.37;;;13.03;;
69744;SDS011;57015;50.120;-5.168;2023-08-17T11:11:02;29.30;;;12.75;;
69744;SDS011;57015;50.120;-5.168;2023-08-17T11:13:29;32.70;;;12.98;;
69744;SDS011;57015;50.120;-5.168;2023-08-17T11:15:57;30.40;;;12.50;;
69744;SDS011;57015;50.120;-5.168;2023-08-17T11:18:23;28.90;;;12.52;;
69744;SDS011;57015;50.120;-5.168;2023-08-17T11:20:48;27.00;;;11.57;;
69744;SDS011;57015;50.120;-5.168;2023-08-17T11:23:15;27.85;;;12.30;;
69744;SDS011;57015;50.120;-5.168;2023-08-17T11:25:40;26.23;;;12.40;;
69744;SDS011;57015;50.120;-5.168;2023-08-17T11:28:06;30.05;;;10.85;;
69744;SDS011;57015;50.120;-5.168;2023-08-17T11:30:33;21.45;;;10.23;;
69744;SDS011;57015;50.120;-5.168;2023-08-17T11:33:04;25.80;;;11.57;;
69744;SDS011;57015;50.120;-5.168;2023-08-17T11:35:29;27.08;;;12.60;;
69744;SDS011;57015;50.120;-5.168;2023-08-17T11:37:55;25.27;;;10.77;;
69744;SDS011;57015;50.120;-5.168;2023-08-17T11:40:20;21.75;;;10.50;;
69744;SDS011;57015;50.120;-5.168;2023-08-17T11:42:46;21.02;;;10.18;;
69744;SDS011;57015;50.120;-5.168;2023-08-17T11:45:11;19.43;;;9.10;;
69744;SDS011;57015;50.120;-5.168;2023-08-17T11:47:37;22.40;;;10.23;;
69744;SDS011;57015;50.120;-5.168;2023-08-17T11:50:07;24.05;;;11.88;;
69744;SDS011;57015;50.120;-5.168;2023-08-17T11:52:34;32.53;;;11.50;;
69744;SDS011;57015;50.120;-5.168;2023-08-17T11:55:03;26.00;;;11.93;;
69744;SDS011;57015;50.120;-5.168;2023-08-17T11:57:33;28.45;;;11.48;;
69744;SDS011;57015;50.120;-5.168;2023-08-17T11:59:59;36.72;;;13.55;;
69744;SDS011;57015;50.120;-5.168;2023-08-17T12:02:29;29.53;;;11.63;;
69744;SDS011;57015;50.120;-5.168;2023-08-17T12:04:55;31.17;;;11.98;;
69744;SDS011;57015;50.120;-5.168;2023-08-17T12:07:21;29.85;;;11.75;;
69744;SDS011;57015;50.120;-5.168;2023-08-17T12:09:48;34.20;;;12.10;;
69744;SDS011;57015;50.120;-5.168;2023-08-17T12:12:18;30.05;;;12.38;;
69744;SDS011;57015;50.120;-5.168;2023-08-17T12:14:44;36.70;;;12.37;;
69744;SDS011;57015;50.120;-5.168;2023-08-17T12:17:15;26.65;;;12.13;;
69744;SDS011;57015;50.120;-5.168;2023-08-17T12:19:41;35.70;;;14.20;;
69744;SDS011;57015;50.120;-5.168;2023-08-17T12:22:07;38.60;;;14.73;;
69744;SDS011;57015;50.120;-5.168;2023-08-17T12:24:34;37.00;;;14.03;;
69744;SDS011;57015;50.120;-5.168;2023-08-17T12:27:01;36.17;;;14.85;;
69744;SDS011;57015;50.120;-5.168;2023-08-17T12:29:27;34.72;;;16.05;;
69744;SDS011;57015;50.120;-5.168;2023-08-17T12:31:53;36.93;;;15.13;;
69744;SDS011;57015;50.120;-5.168;2023-08-17T12:34:18;35.92;;;15.25;;
69744;SDS011;57015;50.120;-5.168;2023-08-17T12:36:43;39.17;;;16.37;;
69744;SDS011;57015;50.120;-5.168;2023-08-17T12:39:09;36.03;;;16.17;;
69744;SDS011;57015;50.120;-5.168;2023-08-17T12:41:38;38.53;;;15.45;;
69744;SDS011;57015;50.120;-5.168;2023-08-17T12:44:08;44.05;;;14.98;;
69744;SDS011;57015;50.120;-5.168;2023-08-17T12:46:37;42.53;;;14.87;;
69744;SDS011;57015;50.120;-5.168;2023-08-17T12:49:02;44.90;;;16.50;;
69744;SDS011;57015;50.120;-5.168;2023-08-17T12:51:28;34.93;;;13.53;;
69744;SDS011;57015;50.120;-5.168;2023-08-17T12:53:53;36.70;;;14.80;;
69744;SDS011;57015;50.120;-5.168;2023-08-17T12:56:18;36.10;;;15.67;;
69744;SDS011;57015;50.120;-5.168;2023-08-17T12:58:44;33.15;;;13.63;;
69744;SDS011;57015;50.120;-5.168;2023-08-17T13:01:09;35.97;;;13.27;;
69744;SDS011;57015;50.120;-5.168;2023-08-17T13:03:35;33.13;;;12.37;;
69744;SDS011;57015;50.120;-5.168;2023-08-17T13:06:00;31.50;;;13.07;;
69744;SDS011;57015;50.120;-5.168;2023-08-17T13:08:26;40.70;;;15.93;;
69744;SDS011;57015;50.120;-5.168;2023-08-17T13:10:51;42.70;;;15.37;;
69744;SDS011;57015;50.120;-5.168;2023-08-17T13:13:16;43.17;;;16.15;;
69744;SDS011;57015;50.120;-5.168;2023-08-17T13:15:42;42.92;;;13.93;;
69744;SDS011;57015;50.120;-5.168;2023-08-17T13:18:07;40.17;;;13.60;;
69744;SDS011;57015;50.120;-5.168;2023-08-17T13:20:33;50.23;;;16.80;;
69744;SDS011;57015;50.120;-5.168;2023-08-17T13:22:58;45.45;;;14.77;;
69744;SDS011;57015;50.120;-5.168;2023-08-17T13:25:24;49.53;;;14.00;;
69744;SDS011;57015;50.120;-5.168;2023-08-17T13:27:49;40.80;;;16.10;;
69744;SDS011;57015;50.120;-5.168;2023-08-17T13:30:15;41.50;;;15.80;;
69744;SDS011;57015;50.120;-5.168;2023-08-17T13:32:40;41.90;;;14.82;;
69744;SDS011;57015;50.120;-5.168;2023-08-17T13:35:06;40.80;;;14.73;;
69744;SDS011;57015;50.120;-5.168;2023-08-17T13:37:31;46.13;;;16.17;;
69744;SDS011;57015;50.120;-5.168;2023-08-17T13:39:57;37.15;;;14.80;;
69744;SDS011;57015;50.120;-5.168;2023-08-17T13:59:55;29.00;;;12.77;;
69744;SDS011;57015;50.120;-5.168;2023-08-17T14:02:20;33.63;;;10.90;;
69744;SDS011;57015;50.120;-5.168;2023-08-17T14:04:46;33.70;;;11.88;;
69744;SDS011;57015;50.120;-5.168;2023-08-17T14:07:11;30.90;;;12.93;;
69744;SDS011;57015;50.120;-5.168;2023-08-17T14:09:36;35.60;;;11.20;;
69744;SDS011;57015;50.120;-5.168;2023-08-17T14:12:02;34.83;;;13.20;;
69744;SDS011;57015;50.120;-5.168;2023-08-17T14:14:29;31.60;;;10.93;;
69744;SDS011;57015;50.120;-5.168;2023-08-17T14:16:55;25.58;;;11.63;;
69744;SDS011;57015;50.120;-5.168;2023-08-17T14:19:20;25.33;;;11.90;;
69744;SDS011;57015;50.120;-5.168;2023-08-17T14:21:45;30.10;;;12.87;;
69744;SDS011;57015;50.120;-5.168;2023-08-17T14:24:11;27.17;;;13.13;;
69744;SDS011;57015;50.120;-5.168;2023-08-17T14:26:36;28.17;;;10.00;;
69744;SDS011;57015;50.120;-5.168;2023-08-17T14:29:02;24.80;;;10.43;;
69744;SDS011;57015;50.120;-5.168;2023-08-17T14:31:27;24.60;;;10.98;;
69744;SDS011;57015;50.120;-5.168;2023-08-17T14:33:53;30.80;;;9.60;;
69744;SDS011;57015;50.120;-5.168;2023-08-17T14:36:19;20.75;;;8.73;;
69744;SDS011;57015;50.120;-5.168;2023-08-17T14:38:44;24.47;;;10.33;;
69744;SDS011;57015;50.120;-5.168;2023-08-17T14:41:10;25.90;;;10.47;;
69744;SDS011;57015;50.120;-5.168;2023-08-17T14:43:35;23.30;;;10.20;;